createdAt,value
2023-04-05T00:01:35.478Z,0.62
2023-04-05T00:04:02.217Z,0.59
2023-04-05T00:06:30.061Z,0.59
2023-04-05T00:08:57.984Z,0.56
2023-04-05T00:11:27.302Z,0.52
2023-04-05T00:13:54.064Z,0.49
2023-04-05T00:16:20.837Z,0.40
2023-04-05T00:18:48.263Z,0.17
2023-04-05T00:21:14.833Z,0.44
2023-04-05T00:23:41.665Z,0.37
2023-04-05T00:26:08.459Z,0.37
2023-04-05T00:28:36.793Z,0.38
2023-04-05T00:31:04.313Z,0.38
2023-04-05T00:33:31.221Z,0.42
2023-04-05T00:35:58.169Z,0.39
2023-04-05T00:38:24.814Z,0.35
2023-04-05T00:40:51.550Z,0.38
2023-04-05T00:43:18.209Z,0.30
2023-04-05T00:45:47.105Z,0.30
2023-04-05T00:48:14.278Z,0.37
2023-04-05T00:50:41.685Z,0.39
2023-04-05T00:53:09.026Z,0.42
2023-04-05T00:55:36.344Z,0.17
2023-04-05T00:58:03.228Z,0.23
2023-04-05T01:00:29.924Z,0.34
2023-04-05T01:03:00.626Z,0.36
2023-04-05T01:05:36.746Z,0.36
2023-04-05T01:08:11.343Z,0.34
2023-04-05T01:10:44.157Z,0.33
2023-04-05T01:13:10.863Z,0.32
2023-04-05T01:15:37.665Z,0.34
2023-04-05T01:18:06.001Z,0.26
2023-04-05T01:20:38.354Z,0.38
2023-04-05T01:23:21.482Z,0.37
2023-04-05T01:26:03.259Z,0.36
2023-04-05T01:28:50.136Z,0.37
2023-04-05T01:31:26.195Z,0.38
2023-04-05T01:33:58.109Z,0.41
2023-04-05T01:36:30.651Z,0.39
2023-04-05T01:38:59.161Z,0.44
2023-04-05T01:41:26.482Z,0.12
2023-04-05T01:43:53.105Z,0.42
2023-04-05T01:46:21.054Z,0.39
2023-04-05T01:48:47.792Z,0.45
2023-04-05T01:51:14.595Z,0.40
2023-04-05T01:53:41.244Z,0.38
2023-04-05T01:56:07.786Z,0.36
2023-04-05T01:58:36.790Z,0.25
2023-04-05T02:01:03.402Z,0.32
2023-04-05T02:03:31.475Z,0.34
2023-04-05T02:05:58.783Z,0.31
2023-04-05T02:08:26.892Z,0.24
2023-04-05T02:10:54.030Z,0.23
2023-04-05T02:13:20.672Z,0.18
2023-04-05T02:15:48.194Z,0.12
2023-04-05T02:18:14.899Z,0.09
2023-04-05T02:20:42.898Z,0.09
2023-04-05T02:23:09.603Z,0.01
2023-04-05T02:25:36.120Z,-0.02
2023-04-05T02:28:04.662Z,-0.52
2023-04-05T02:30:31.221Z,-0.11
2023-04-05T02:32:57.846Z,-0.19
2023-04-05T02:35:24.740Z,-0.18
2023-04-05T02:37:52.834Z,-0.18
2023-04-05T02:40:19.363Z,-0.24
2023-04-05T02:42:45.965Z,-0.27
2023-04-05T02:45:12.536Z,-0.28
2023-04-05T02:47:39.653Z,-0.24
2023-04-05T02:50:07.758Z,-0.25
2023-04-05T02:52:40.707Z,-0.29
2023-04-05T02:55:09.199Z,-0.31
2023-04-05T02:57:36.456Z,-0.41
2023-04-05T03:00:13.773Z,-0.56
2023-04-05T03:02:40.915Z,-0.77
2023-04-05T03:05:08.538Z,-0.79
2023-04-05T03:07:36.279Z,-0.68
2023-04-05T03:10:07.807Z,-0.78
2023-04-05T03:12:38.298Z,-0.77
2023-04-05T03:15:07.256Z,-0.89
2023-04-05T03:17:38.792Z,-0.88
2023-04-05T03:20:07.234Z,-0.80
2023-04-05T03:22:34.843Z,-1.06
2023-04-05T03:25:02.869Z,-0.98
2023-04-05T03:27:31.864Z,-0.94
2023-04-05T03:30:08.528Z,-0.95
2023-04-05T03:32:40.620Z,-1.00
2023-04-05T03:35:20.651Z,-1.05
2023-04-05T03:37:47.695Z,-1.08
2023-04-05T03:40:14.663Z,-1.11
2023-04-05T03:42:41.656Z,-1.34
2023-04-05T03:45:10.561Z,-1.18
2023-04-05T03:47:37.245Z,-1.36
2023-04-05T03:50:07.794Z,-1.34
2023-04-05T03:52:34.459Z,-1.29
2023-04-05T03:55:01.068Z,-1.52
2023-04-05T03:57:30.684Z,-1.33
2023-04-05T04:00:00.835Z,-1.37
2023-04-05T04:02:31.649Z,-1.39
2023-04-05T04:04:58.336Z,-1.42
2023-04-05T04:07:25.646Z,-1.44
2023-04-05T04:09:52.268Z,-1.47
2023-04-05T04:12:18.845Z,-1.52
2023-04-05T04:14:53.556Z,-1.56
2023-04-05T04:17:44.787Z,-1.56
2023-04-05T04:20:32.280Z,-1.56
2023-04-05T04:23:09.824Z,-1.60
2023-04-05T04:25:54.314Z,-1.75
2023-04-05T04:28:33.357Z,-1.69
2023-04-05T04:31:15.385Z,-1.74
2023-04-05T04:34:08.110Z,-1.73
2023-04-05T04:36:47.859Z,-1.75
2023-04-05T04:39:25.286Z,-1.75
2023-04-05T04:42:11.524Z,-1.77
2023-04-05T04:44:53.060Z,-1.81
2023-04-05T04:47:27.350Z,-1.84
2023-04-05T04:50:16.370Z,-1.86
2023-04-05T04:52:42.981Z,-1.90
2023-04-05T04:55:10.328Z,-1.94
2023-04-05T04:57:36.854Z,-1.95
2023-04-05T05:00:04.104Z,-1.96
2023-04-05T05:02:31.383Z,-1.97
2023-04-05T05:04:58.028Z,-1.96
2023-04-05T05:07:25.988Z,-1.97
2023-04-05T05:09:52.471Z,-2.00
2023-04-05T05:12:20.894Z,-2.02
2023-04-05T05:14:47.590Z,-2.01
2023-04-05T05:17:14.137Z,-2.01
2023-04-05T05:19:41.152Z,-2.00
2023-04-05T05:22:07.789Z,-1.99
2023-04-05T05:24:35.620Z,-1.99
2023-04-05T05:27:02.229Z,-1.97
2023-04-05T05:29:28.905Z,-2.15
2023-04-05T05:31:55.457Z,-1.90
2023-04-05T05:34:22.027Z,-1.90
2023-04-05T05:36:52.153Z,-1.91
2023-04-05T05:39:18.736Z,-1.96
2023-04-05T05:41:46.592Z,-1.88
2023-04-05T05:44:13.746Z,-1.82
2023-04-05T05:46:40.287Z,-1.75
2023-04-05T05:49:06.844Z,-1.73
2023-04-05T05:51:33.350Z,-1.70
2023-04-05T05:53:59.837Z,-1.65
2023-04-05T05:56:26.337Z,-1.62
2023-04-05T05:58:54.616Z,-1.54
2023-04-05T06:01:21.128Z,-1.47
2023-04-05T06:03:47.731Z,-1.46
2023-04-05T06:06:14.295Z,-1.46
2023-04-05T06:08:40.787Z,-1.36
2023-04-05T06:11:07.250Z,-1.36
2023-04-05T06:13:33.790Z,-1.28
2023-04-05T06:16:02.352Z,-1.26
2023-04-05T06:18:28.842Z,-1.23
2023-04-05T06:20:55.595Z,-1.19
2023-04-05T06:23:22.180Z,-1.12
2023-04-05T06:25:48.670Z,-1.07
2023-04-05T06:28:15.332Z,-0.89
2023-04-05T06:30:42.000Z,-0.82
2023-04-05T06:33:10.096Z,-0.67
2023-04-05T06:35:36.642Z,-0.61
2023-04-05T06:38:03.168Z,-0.54
2023-04-05T06:40:29.657Z,-0.46
2023-04-05T06:42:56.162Z,-0.29
2023-04-05T06:45:27.850Z,-0.19
2023-04-05T06:47:54.382Z,-0.10
2023-04-05T06:50:22.410Z,0.01
2023-04-05T06:52:48.989Z,0.15
2023-04-05T06:55:15.589Z,0.32
2023-04-05T06:57:42.127Z,0.39
2023-04-05T07:00:09.448Z,0.50
2023-04-05T07:02:36.463Z,0.60
2023-04-05T07:05:03.619Z,0.72
2023-04-05T07:07:31.685Z,0.85
2023-04-05T07:09:58.191Z,1.02
2023-04-05T07:12:24.967Z,1.11
2023-04-05T07:14:51.458Z,1.23
2023-04-05T07:17:18.039Z,1.35
2023-04-05T07:19:44.522Z,1.48
2023-04-05T07:22:11.035Z,1.56
2023-04-05T07:24:38.850Z,1.72
2023-04-05T07:27:05.395Z,1.87
2023-04-05T07:29:31.883Z,1.98
2023-04-05T07:31:58.446Z,2.21
2023-04-05T07:34:25.073Z,2.37
2023-04-05T07:36:51.605Z,2.44
2023-04-05T07:39:18.422Z,2.81
2023-04-05T07:41:46.396Z,2.94
2023-04-05T07:44:12.898Z,3.13
2023-04-05T07:46:39.516Z,3.35
2023-04-05T07:49:06.185Z,3.44
2023-04-05T07:51:32.785Z,3.63
2023-04-05T07:54:00.705Z,3.90
2023-04-05T07:56:28.657Z,4.05
2023-04-05T07:58:56.523Z,4.11
2023-04-05T08:01:23.119Z,4.05
2023-04-05T08:03:49.691Z,4.36
2023-04-05T08:06:16.698Z,4.49
2023-04-05T08:08:43.832Z,4.66
2023-04-05T08:11:10.779Z,4.84
2023-04-05T08:13:37.337Z,4.98
2023-04-05T08:16:06.108Z,5.02
2023-04-05T08:18:32.723Z,5.16
2023-04-05T08:20:59.293Z,5.33
2023-04-05T08:23:25.930Z,5.47
2023-04-05T08:25:52.990Z,5.63
2023-04-05T08:28:19.737Z,5.76
2023-04-05T08:30:46.310Z,5.94
2023-04-05T08:33:14.632Z,5.99
2023-04-05T08:35:41.250Z,6.11
2023-04-05T08:38:07.944Z,6.22
2023-04-05T08:40:40.424Z,6.25
2023-04-05T08:43:11.070Z,6.36
2023-04-05T08:45:46.341Z,6.46
2023-04-05T08:48:14.654Z,6.64
2023-04-05T08:50:41.388Z,6.74
2023-04-05T08:53:09.091Z,6.88
2023-04-05T08:55:36.442Z,6.99
2023-04-05T08:58:07.429Z,7.12
2023-04-05T09:00:34.205Z,7.27
2023-04-05T09:03:01.341Z,7.19
2023-04-05T09:05:30.697Z,7.38
2023-04-05T09:07:58.204Z,7.15
2023-04-05T09:10:26.896Z,7.44
2023-04-05T09:12:53.664Z,7.48
2023-04-05T09:15:21.249Z,7.67
2023-04-05T09:17:48.190Z,7.86
2023-04-05T09:20:14.883Z,7.82
2023-04-05T09:22:46.964Z,7.85
2023-04-05T09:25:34.220Z,7.95
2023-04-05T09:28:02.152Z,8.05
2023-04-05T09:30:29.131Z,8.07
2023-04-05T09:32:56.820Z,8.18
2023-04-05T09:35:24.902Z,8.27
2023-04-05T09:37:55.688Z,8.29
2023-04-05T09:40:24.922Z,8.27
2023-04-05T09:42:51.576Z,8.43
2023-04-05T09:45:18.282Z,8.50
2023-04-05T09:47:57.934Z,8.62
2023-04-05T09:50:25.014Z,8.67
2023-04-05T09:53:05.785Z,8.90
2023-04-05T09:55:32.560Z,9.02
2023-04-05T09:57:59.149Z,9.21
2023-04-05T10:00:25.751Z,9.24
2023-04-05T10:02:54.153Z,9.24
2023-04-05T10:05:24.308Z,9.26
2023-04-05T10:07:51.210Z,9.39
2023-04-05T10:10:19.234Z,9.50
2023-04-05T10:12:47.906Z,9.42
2023-04-05T10:15:16.039Z,9.37
2023-04-05T10:17:47.785Z,9.53
2023-04-05T10:20:14.931Z,9.69
2023-04-05T10:22:52.729Z,9.89
2023-04-05T10:25:27.137Z,9.92
2023-04-05T10:27:55.462Z,9.91
2023-04-05T10:30:24.494Z,9.97
2023-04-05T10:33:03.835Z,10.05
2023-04-05T10:35:35.076Z,9.92
2023-04-05T10:38:12.699Z,9.88
2023-04-05T10:40:46.294Z,10.09
2023-04-05T10:43:17.369Z,10.17
2023-04-05T10:45:44.643Z,10.22
2023-04-05T10:48:18.826Z,10.51
2023-04-05T10:50:47.728Z,10.32
2023-04-05T10:53:15.820Z,10.31
2023-04-05T10:55:44.980Z,10.47
2023-04-05T10:58:13.259Z,10.46
2023-04-05T11:00:40.879Z,10.48
2023-04-05T11:03:07.798Z,10.72
2023-04-05T11:05:35.630Z,10.78
2023-04-05T11:08:05.038Z,10.75
2023-04-05T11:10:33.631Z,10.66
2023-04-05T11:13:06.611Z,10.55
2023-04-05T11:15:34.626Z,10.82
2023-04-05T11:18:06.363Z,10.86
2023-04-05T11:20:46.233Z,10.92
2023-04-05T11:23:15.024Z,10.97
2023-04-05T11:25:47.302Z,11.12
2023-04-05T11:28:30.815Z,11.35
2023-04-05T11:30:57.759Z,11.52
2023-04-05T11:33:56.344Z,11.74
2023-04-05T11:36:36.771Z,11.76
2023-04-05T11:39:25.413Z,11.93
2023-04-05T11:42:10.377Z,12.04
2023-04-05T11:44:45.231Z,12.05
2023-04-05T11:47:12.677Z,12.10
2023-04-05T11:49:40.080Z,12.38
2023-04-05T11:52:14.332Z,12.54
2023-04-05T11:54:41.515Z,12.80
2023-04-05T11:57:12.268Z,12.87
2023-04-05T11:59:38.987Z,13.00
2023-04-05T12:02:06.875Z,12.92
2023-04-05T12:04:33.987Z,12.86
2023-04-05T12:07:14.718Z,12.86
2023-04-05T12:09:58.182Z,12.97
2023-04-05T12:12:25.002Z,12.92
2023-04-05T12:14:51.514Z,13.20
2023-04-05T12:17:19.459Z,13.12
2023-04-05T12:19:46.061Z,13.49
2023-04-05T12:22:13.095Z,13.56
2023-04-05T12:24:39.894Z,13.57
2023-04-05T12:27:06.716Z,13.48
2023-04-05T12:29:33.450Z,13.47
2023-04-05T12:32:01.108Z,13.39
2023-04-05T12:34:29.054Z,13.57
2023-04-05T12:36:55.665Z,13.38
2023-04-05T12:39:22.142Z,13.71
2023-04-05T12:41:56.524Z,13.97
2023-04-05T12:44:29.053Z,14.22
2023-04-05T12:47:00.394Z,14.46
2023-04-05T12:49:30.109Z,14.50
2023-04-05T12:52:01.581Z,14.62
2023-04-05T12:54:28.149Z,14.68
2023-04-05T12:56:55.317Z,14.77
2023-04-05T12:59:22.827Z,14.86
2023-04-05T13:01:49.903Z,14.91
2023-04-05T13:04:19.060Z,14.80
2023-04-05T13:06:47.088Z,14.77
2023-04-05T13:09:13.926Z,14.73
2023-04-05T13:11:40.499Z,14.62
2023-04-05T13:14:07.248Z,14.60
2023-04-05T13:16:33.873Z,14.64
2023-04-05T13:19:00.455Z,14.54
2023-04-05T13:21:27.072Z,14.48
2023-04-05T13:23:55.021Z,14.55
2023-04-05T13:26:21.483Z,14.69
2023-04-05T13:28:48.049Z,14.66
2023-04-05T13:31:15.899Z,14.65
2023-04-05T13:33:43.322Z,14.69
2023-04-05T13:36:10.575Z,14.87
2023-04-05T13:38:37.171Z,14.95
2023-04-05T13:41:05.454Z,15.00
2023-04-05T13:43:32.196Z,14.97
2023-04-05T13:45:58.714Z,15.22
2023-04-05T13:48:25.284Z,15.24
2023-04-05T13:50:51.888Z,15.38
2023-04-05T13:53:18.643Z,15.47
2023-04-05T13:55:45.165Z,15.43
2023-04-05T13:58:13.177Z,15.25
2023-04-05T14:00:40.058Z,15.26
2023-04-05T14:03:06.883Z,15.38
2023-04-05T14:05:33.542Z,15.39
2023-04-05T14:08:00.110Z,15.47
2023-04-05T14:10:26.753Z,15.39
2023-04-05T14:12:53.374Z,15.50
2023-04-05T14:15:21.231Z,15.50
2023-04-05T14:17:47.835Z,15.24
2023-04-05T14:20:14.581Z,14.91
2023-04-05T14:22:41.152Z,14.86
2023-04-05T14:25:08.363Z,14.95
2023-04-05T14:27:35.010Z,15.11
2023-04-05T14:30:01.566Z,15.30
2023-04-05T14:32:31.668Z,15.48
2023-04-05T14:34:59.784Z,15.62
2023-04-05T14:37:26.318Z,15.66
2023-04-05T14:39:52.909Z,15.75
2023-04-05T14:42:19.441Z,15.64
2023-04-05T14:44:45.998Z,15.58
2023-04-05T14:47:12.521Z,15.54
2023-04-05T14:49:40.476Z,15.46
2023-04-05T14:52:06.986Z,15.30
2023-04-05T14:54:33.564Z,15.69
2023-04-05T14:57:00.104Z,15.70
2023-04-05T14:59:26.727Z,15.94
2023-04-05T15:01:53.454Z,15.97
2023-04-05T15:04:20.141Z,15.83
2023-04-05T15:06:48.390Z,15.66
2023-04-05T15:09:15.012Z,15.48
2023-04-05T15:11:41.730Z,15.28
2023-04-05T15:14:13.299Z,15.25
2023-04-05T15:16:44.974Z,15.37
2023-04-05T15:19:11.500Z,15.35
2023-04-05T15:21:38.701Z,15.38
2023-04-05T15:24:06.866Z,15.41
2023-04-05T15:26:33.426Z,15.56
2023-04-05T15:28:59.988Z,15.45
2023-04-05T15:31:26.621Z,15.71
2023-04-05T15:33:53.238Z,15.56
2023-04-05T15:36:19.805Z,15.39
2023-04-05T15:38:46.326Z,15.35
2023-04-05T15:41:14.266Z,15.39
2023-04-05T15:43:40.787Z,15.48
2023-04-05T15:46:07.433Z,15.49
2023-04-05T15:48:33.963Z,15.58
2023-04-05T15:51:00.601Z,15.78
2023-04-05T15:53:27.256Z,15.86
2023-04-05T15:55:53.851Z,15.92
2023-04-05T15:58:21.863Z,15.88
2023-04-05T16:00:48.535Z,15.86
2023-04-05T16:03:15.130Z,15.94
2023-04-05T16:05:41.829Z,16.07
2023-04-05T16:08:08.439Z,16.12
2023-04-05T16:10:35.064Z,16.18
2023-04-05T16:13:01.571Z,16.24
2023-04-05T16:15:29.612Z,16.25
2023-04-05T16:17:56.204Z,16.35
2023-04-05T16:20:22.841Z,16.28
2023-04-05T16:22:49.661Z,16.23
2023-04-05T16:25:16.397Z,16.29
2023-04-05T16:27:42.932Z,16.38
2023-04-05T16:30:10.287Z,16.56
2023-04-05T16:32:38.353Z,16.79
2023-04-05T16:35:05.844Z,16.91
2023-04-05T16:37:32.340Z,16.90
2023-04-05T16:39:58.898Z,17.03
2023-04-05T16:42:25.460Z,17.10
2023-04-05T16:44:52.044Z,17.33
2023-04-05T16:47:18.531Z,17.37
2023-04-05T16:49:46.433Z,17.21
2023-04-05T16:52:13.055Z,17.17
2023-04-05T16:54:39.733Z,17.33
2023-04-05T16:57:06.255Z,17.42
2023-04-05T16:59:32.977Z,17.52
2023-04-05T17:01:59.493Z,17.45
2023-04-05T17:04:26.109Z,17.51
2023-04-05T17:06:54.036Z,17.53
2023-04-05T17:09:20.574Z,17.48
2023-04-05T17:11:47.123Z,17.31
2023-04-05T17:14:13.717Z,17.05
2023-04-05T17:16:40.244Z,16.71
2023-04-05T17:19:06.821Z,16.35
2023-04-05T17:21:33.364Z,15.96
2023-04-05T17:24:01.335Z,15.46
2023-04-05T17:26:27.879Z,15.18
2023-04-05T17:28:54.441Z,14.90
2023-04-05T17:31:20.999Z,14.49
2023-04-05T17:33:48.496Z,14.18
2023-04-05T17:36:15.499Z,13.78
2023-04-05T17:38:42.073Z,13.54
2023-04-05T17:41:10.160Z,13.36
2023-04-05T17:43:36.767Z,13.13
2023-04-05T17:46:03.604Z,12.89
2023-04-05T17:48:30.441Z,12.65
2023-04-05T17:50:56.972Z,12.39
2023-04-05T17:53:23.558Z,12.13
2023-04-05T17:55:50.033Z,11.90
2023-04-05T17:58:17.963Z,11.70
2023-04-05T18:00:44.431Z,11.45
2023-04-05T18:03:13.228Z,11.25
2023-04-05T18:05:40.042Z,10.96
2023-04-05T18:08:06.629Z,10.65
2023-04-05T18:10:33.155Z,10.37
2023-04-05T18:12:59.761Z,10.11
2023-04-05T18:15:27.680Z,9.89
2023-04-05T18:17:54.328Z,9.60
2023-04-05T18:20:20.828Z,9.44
2023-04-05T18:22:47.422Z,9.22
2023-04-05T18:25:15.358Z,9.04
2023-04-05T18:27:41.997Z,8.82
2023-04-05T18:30:09.751Z,8.64
2023-04-05T18:32:38.588Z,8.27
2023-04-05T18:35:06.255Z,8.20
2023-04-05T18:37:32.819Z,8.07
2023-04-05T18:39:59.282Z,7.88
2023-04-05T18:42:25.874Z,7.75
2023-04-05T18:44:52.509Z,7.61
2023-04-05T18:47:19.087Z,7.47
2023-04-05T18:49:46.922Z,7.29
2023-04-05T18:52:13.528Z,7.15
2023-04-05T18:54:40.135Z,7.03
2023-04-05T18:57:07.179Z,6.89
2023-04-05T18:59:33.694Z,6.67
2023-04-05T19:02:00.369Z,6.67
2023-04-05T19:04:27.137Z,6.56
2023-04-05T19:06:55.077Z,6.41
2023-04-05T19:09:21.611Z,6.31
2023-04-05T19:11:48.220Z,6.14
2023-04-05T19:14:14.732Z,6.06
2023-04-05T19:16:42.563Z,5.93
2023-04-05T19:19:09.331Z,5.84
2023-04-05T19:21:36.339Z,5.73
2023-04-05T19:24:04.458Z,5.65
2023-04-05T19:26:31.021Z,5.54
2023-04-05T19:28:57.613Z,5.45
2023-04-05T19:31:24.249Z,5.37
2023-04-05T19:33:50.816Z,5.25
2023-04-05T19:36:17.521Z,5.18
2023-04-05T19:38:44.030Z,5.11
2023-04-05T19:41:12.002Z,5.05
2023-04-05T19:43:39.668Z,4.95
2023-04-05T19:46:08.483Z,4.89
2023-04-05T19:48:37.164Z,4.71
2023-04-05T19:51:05.484Z,4.65
2023-04-05T19:53:47.325Z,4.55
2023-04-05T19:56:20.059Z,4.50
2023-04-05T19:58:48.057Z,4.40
2023-04-05T20:01:30.946Z,4.32
2023-04-05T20:03:57.948Z,4.26
2023-04-05T20:06:24.881Z,4.20
2023-04-05T20:08:53.273Z,4.13
2023-04-05T20:11:21.952Z,4.03
2023-04-05T20:13:49.643Z,3.91
2023-04-05T20:16:17.123Z,3.85
2023-04-05T20:18:45.302Z,3.67
2023-04-05T20:21:12.035Z,3.77
2023-04-05T20:23:39.633Z,3.63
2023-04-05T20:26:06.608Z,3.58
2023-04-05T20:28:37.080Z,3.43
2023-04-05T20:31:05.833Z,3.39
2023-04-05T20:33:34.641Z,3.40
2023-04-05T20:36:01.337Z,3.25
2023-04-05T20:38:28.400Z,3.21
2023-04-05T20:40:55.013Z,3.13
2023-04-05T20:43:22.901Z,3.09
2023-04-05T20:45:50.828Z,3.02
2023-04-05T20:48:17.346Z,2.77
2023-04-05T20:50:44.204Z,2.97
2023-04-05T20:53:11.025Z,2.69
2023-04-05T20:55:37.622Z,2.76
2023-04-05T20:58:04.109Z,2.71
2023-04-05T21:00:30.749Z,2.65
2023-04-05T21:02:58.737Z,2.62
2023-04-05T21:05:25.350Z,2.48
2023-04-05T21:07:51.979Z,2.55
2023-04-05T21:10:18.706Z,2.32
2023-04-05T21:12:45.188Z,2.38
2023-04-05T21:15:11.692Z,2.29
2023-04-05T21:17:38.289Z,2.19
2023-04-05T21:20:07.714Z,2.13
2023-04-05T21:22:34.528Z,2.10
2023-04-05T21:25:01.116Z,2.05
2023-04-05T21:27:27.564Z,1.97
2023-04-05T21:29:54.115Z,1.95
2023-04-05T21:32:20.625Z,1.94
2023-04-05T21:34:47.413Z,1.92
2023-04-05T21:37:15.227Z,1.83
2023-04-05T21:39:41.771Z,1.78
2023-04-05T21:42:08.226Z,1.57
2023-04-05T21:44:34.877Z,1.60
2023-04-05T21:47:01.541Z,1.56
2023-04-05T21:49:28.351Z,1.54
2023-04-05T21:51:54.870Z,1.49
2023-04-05T21:54:22.807Z,1.46
2023-04-05T21:56:49.510Z,1.35
2023-04-05T21:59:16.584Z,1.25
2023-04-05T22:01:43.147Z,1.31
2023-04-05T22:04:09.692Z,1.26
2023-04-05T22:06:36.174Z,1.18
2023-04-05T22:09:02.915Z,1.13
2023-04-05T22:11:30.980Z,0.81
2023-04-05T22:13:57.594Z,0.97
2023-04-05T22:16:24.229Z,0.95
2023-04-05T22:18:50.955Z,0.92
2023-04-05T22:21:17.449Z,0.87
2023-04-05T22:23:44.024Z,0.82
2023-04-05T22:26:10.578Z,0.79
2023-04-05T22:28:38.536Z,0.72
2023-04-05T22:31:05.043Z,0.69
2023-04-05T22:33:31.608Z,0.52
2023-04-05T22:35:58.165Z,0.66
2023-04-05T22:38:24.897Z,0.60
2023-04-05T22:40:51.419Z,0.55
2023-04-05T22:43:17.989Z,0.47
2023-04-05T22:45:46.928Z,0.46
2023-04-05T22:48:15.233Z,0.40
2023-04-05T22:50:41.857Z,0.39
2023-04-05T22:53:08.411Z,0.40
2023-04-05T22:55:35.201Z,0.33
2023-04-05T22:58:01.808Z,0.31
2023-04-05T23:00:28.354Z,0.09
2023-04-05T23:02:56.313Z,0.26
2023-04-05T23:05:23.296Z,0.25
2023-04-05T23:07:49.921Z,0.20
2023-04-05T23:10:16.418Z,0.16
2023-04-05T23:12:43.170Z,0.07
2023-04-05T23:15:10.784Z,0.18
2023-04-05T23:17:37.556Z,0.14
2023-04-05T23:20:07.329Z,0.12
2023-04-05T23:22:34.179Z,0.09
2023-04-05T23:25:00.669Z,0.09
2023-04-05T23:27:27.427Z,0.09
2023-04-05T23:29:54.005Z,0.07
2023-04-05T23:32:21.063Z,0.03
2023-04-05T23:34:47.975Z,0.02
2023-04-05T23:37:16.204Z,-0.05
2023-04-05T23:39:42.817Z,-0.07
2023-04-05T23:42:09.515Z,-0.10
2023-04-05T23:44:36.638Z,-0.08
2023-04-05T23:47:03.529Z,-0.11
2023-04-05T23:49:30.033Z,-0.05
2023-04-05T23:51:56.585Z,-0.09
2023-04-05T23:54:24.619Z,-0.12
2023-04-05T23:56:51.224Z,-0.13
2023-04-05T23:59:17.754Z,-0.16
